Time;durP1;ratioP1;P1;durP2;ratioP2;P2;SDS_P1;SDS_P2;PMS_P1;PMS_P2;Temp;Humidity;BMP_temperature;BMP_pressure;BME280_temperature;BME280_humidity;BME280_pressure;Samples;Min_cycle;Max_cycle;Signal;HPM_P1;HPM_P2
2023/06/20 00:00:50;;;;;;;22.90;20.63;;;21.10;99.90;;;;;;2095905;28;20544;-75
2023/06/20 00:01:51;;;;;;;22.73;20.42;;;21.10;99.90;;;;;;2102252;28;20050;-75
2023/06/20 00:02:51;;;;;;;22.80;20.13;;;21.10;99.90;;;;;;2098679;28;20024;-75
2023/06/20 00:03:52;;;;;;;22.27;19.98;;;21.00;99.90;;;;;;2098854;28;20077;-75
2023/06/20 00:04:52;;;;;;;22.65;20.27;;;21.00;99.90;;;;;;2103500;28;20433;-76
2023/06/20 00:05:53;;;;;;;22.75;20.48;;;21.00;99.90;;;;;;2098540;28;20059;-74
2023/06/20 00:06:53;;;;;;;22.60;20.35;;;21.00;99.90;;;;;;2102310;28;20034;-74
2023/06/20 00:07:54;;;;;;;23.55;21.10;;;21.00;99.90;;;;;;2091991;28;20036;-74
2023/06/20 00:08:55;;;;;;;23.23;20.80;;;21.00;99.90;;;;;;2090941;28;20081;-74
2023/06/20 00:09:55;;;;;;;23.33;20.88;;;21.00;99.90;;;;;;2092866;28;20032;-73
2023/06/20 00:10:56;;;;;;;23.38;20.98;;;20.90;99.90;;;;;;2089084;28;20060;-74
2023/06/20 00:11:57;;;;;;;23.15;20.67;;;20.90;99.90;;;;;;2101200;28;20281;-74
2023/06/20 00:12:59;;;;;;;22.63;20.30;;;20.90;99.90;;;;;;2098732;28;20016;-74
2023/06/20 00:13:59;;;;;;;22.25;19.92;;;20.90;99.90;;;;;;2098361;28;20047;-74
2023/06/20 00:15:00;;;;;;;22.75;20.35;;;20.90;99.90;;;;;;2103123;28;20364;-74
2023/06/20 00:16:01;;;;;;;22.80;20.40;;;20.90;99.90;;;;;;2092982;28;20033;-73
2023/06/20 00:17:01;;;;;;;22.45;20.10;;;20.90;99.90;;;;;;2083920;28;20151;-74
2023/06/20 00:18:02;;;;;;;22.88;20.33;;;20.90;99.90;;;;;;2092386;28;20059;-74
2023/06/20 00:19:02;;;;;;;23.05;20.73;;;20.90;99.90;;;;;;2096687;28;20031;-74
2023/06/20 00:20:05;;;;;;;22.02;19.70;;;20.90;99.90;;;;;;2091468;28;20116;-74
2023/06/20 00:21:06;;;;;;;22.30;20.10;;;20.90;99.90;;;;;;2085210;28;20107;-74
2023/06/20 00:22:06;;;;;;;21.65;19.48;;;20.90;99.90;;;;;;2097958;28;20032;-74
2023/06/20 00:23:07;;;;;;;22.58;20.35;;;20.90;99.90;;;;;;2098466;28;20074;-74
2023/06/20 00:24:09;;;;;;;23.63;20.35;;;20.90;99.90;;;;;;2098107;28;20332;-74
2023/06/20 00:25:10;;;;;;;22.98;20.67;;;20.90;99.90;;;;;;2091719;28;20476;-74
2023/06/20 00:26:10;;;;;;;22.77;20.42;;;20.90;99.90;;;;;;2085736;28;20033;-73
2023/06/20 00:27:11;;;;;;;22.10;19.95;;;20.90;99.90;;;;;;2090807;28;20028;-74
2023/06/20 00:28:16;;;;;;;22.45;20.25;;;20.90;99.90;;;;;;2101138;28;20492;-74
2023/06/20 00:29:17;;;;;;;22.67;20.35;;;20.90;99.90;;;;;;2096322;28;20039;-73
2023/06/20 00:30:17;;;;;;;22.58;20.30;;;20.90;99.90;;;;;;2102546;28;20051;-74
2023/06/20 00:31:18;;;;;;;22.50;20.20;;;20.80;99.90;;;;;;2098674;28;20031;-74
2023/06/20 00:32:19;;;;;;;23.60;20.92;;;20.80;99.90;;;;;;2098818;28;20025;-74
2023/06/20 00:33:19;;;;;;;22.63;20.13;;;20.80;99.90;;;;;;2090479;28;20028;-75
2023/06/20 00:34:20;;;;;;;22.65;20.45;;;20.80;99.90;;;;;;2091872;28;20032;-74
2023/06/20 00:35:21;;;;;;;23.00;20.60;;;20.80;99.90;;;;;;2095701;28;20067;-75
2023/06/20 00:36:25;;;;;;;23.10;20.70;;;20.80;99.90;;;;;;2092289;28;20032;-74
2023/06/20 00:37:26;;;;;;;22.63;20.45;;;20.80;99.90;;;;;;2093813;28;20020;-74
2023/06/20 00:38:29;;;;;;;23.77;21.27;;;20.80;99.90;;;;;;2100778;28;20521;-74
2023/06/20 00:39:29;;;;;;;22.98;20.65;;;20.70;99.90;;;;;;2100472;28;20423;-74
2023/06/20 00:40:30;;;;;;;25.90;21.23;;;20.70;99.90;;;;;;2097461;28;20036;-74
2023/06/20 00:41:31;;;;;;;23.17;20.98;;;20.70;99.90;;;;;;2098110;28;20032;-74
2023/06/20 00:42:32;;;;;;;23.10;20.80;;;20.70;99.90;;;;;;2097318;27;20148;-74
2023/06/20 00:43:32;;;;;;;23.73;21.27;;;20.70;99.90;;;;;;2095462;28;20086;-74
2023/06/20 00:44:33;;;;;;;22.65;20.35;;;20.60;99.90;;;;;;2098485;28;20036;-73
2023/06/20 00:45:34;;;;;;;23.33;20.98;;;20.60;99.90;;;;;;2102685;28;20112;-74
2023/06/20 00:46:40;;;;;;;23.17;20.75;;;20.60;99.90;;;;;;2091625;28;20047;-74
2023/06/20 00:47:40;;;;;;;23.25;20.85;;;20.60;99.90;;;;;;2093272;28;20122;-74
2023/06/20 00:48:41;;;;;;;22.23;19.92;;;20.60;99.90;;;;;;2100367;28;20028;-72
2023/06/20 00:49:46;;;;;;;22.65;20.40;;;20.60;99.90;;;;;;2101172;28;20435;-73
2023/06/20 00:50:46;;;;;;;23.15;20.85;;;20.60;99.90;;;;;;2100360;28;20051;-75
2023/06/20 00:51:50;;;;;;;24.05;21.45;;;20.60;99.90;;;;;;2097559;28;20030;-74
2023/06/20 00:52:50;;;;;;;24.13;21.63;;;20.60;99.90;;;;;;2097557;28;20430;-74
2023/06/20 00:53:51;;;;;;;23.38;21.08;;;20.60;99.90;;;;;;2094219;28;20032;-73
2023/06/20 00:54:51;;;;;;;23.35;20.95;;;20.60;99.90;;;;;;2101363;28;20168;-73
2023/06/20 00:55:52;;;;;;;23.90;21.40;;;20.50;99.90;;;;;;2090810;28;23102;-74
2023/06/20 00:56:54;;;;;;;25.45;21.60;;;20.50;99.90;;;;;;2100173;28;20024;-74
2023/06/20 00:57:58;;;;;;;24.17;21.75;;;20.50;99.90;;;;;;2091869;28;20447;-75
2023/06/20 00:58:59;;;;;;;24.25;21.83;;;20.50;99.90;;;;;;2089053;28;20060;-73
2023/06/20 00:59:59;;;;;;;24.38;21.77;;;20.50;99.90;;;;;;2098291;28;20090;-74
2023/06/20 01:01:00;;;;;;;24.58;22.00;;;20.50;99.90;;;;;;2099112;28;20032;-74
2023/06/20 01:02:03;;;;;;;24.95;22.05;;;20.50;99.90;;;;;;2103232;28;20024;-74
2023/06/20 01:03:10;;;;;;;24.60;22.05;;;20.50;99.90;;;;;;2098303;28;20730;-74
2023/06/20 01:04:12;;;;;;;24.48;21.90;;;20.40;99.90;;;;;;2098494;28;20048;-74
2023/06/20 01:05:14;;;;;;;25.52;22.83;;;20.40;99.90;;;;;;2097313;28;20028;-75
2023/06/20 01:06:20;;;;;;;25.92;23.13;;;20.40;99.90;;;;;;2097699;28;20016;-74
2023/06/20 01:07:32;;;;;;;25.83;23.02;;;20.40;99.90;;;;;;2099593;28;20031;-75
2023/06/20 01:08:46;;;;;;;26.00;23.30;;;20.40;99.90;;;;;;2085263;28;20064;-75
2023/06/20 01:10:24;;;;;;;26.65;23.95;;;20.40;99.90;;;;;;2089457;28;20611;-75
2023/06/20 01:11:40;;;;;;;27.80;24.90;;;20.40;99.90;;;;;;2073408;28;20068;-75
2023/06/20 01:12:58;;;;;;;26.20;23.38;;;20.30;99.90;;;;;;2084870;28;20123;-75
2023/06/20 01:14:14;;;;;;;26.25;23.58;;;20.30;99.90;;;;;;2091804;28;20106;-75
2023/06/20 01:15:47;;;;;;;27.42;24.52;;;20.30;99.90;;;;;;2082745;28;20036;-75
2023/06/20 01:17:05;;;;;;;26.80;24.00;;;20.30;99.90;;;;;;2092126;28;20041;-75
2023/06/20 01:18:26;;;;;;;26.65;23.95;;;20.20;99.90;;;;;;2093902;28;20151;-75
2023/06/20 01:19:43;;;;;;;26.52;23.73;;;20.20;99.90;;;;;;2094561;28;20271;-74
2023/06/20 01:20:50;;;;;;;27.17;24.40;;;20.20;99.90;;;;;;2100258;28;20027;-73
2023/06/20 01:22:07;;;;;;;27.25;24.55;;;20.20;99.90;;;;;;2101079;28;20032;-74
2023/06/20 01:23:25;;;;;;;27.30;24.42;;;20.20;99.90;;;;;;2090728;28;20044;-74
2023/06/20 01:24:29;;;;;;;27.50;24.48;;;20.10;99.90;;;;;;2096013;28;20746;-73
2023/06/20 01:25:35;;;;;;;26.23;23.70;;;20.10;99.90;;;;;;2091705;28;20495;-73
2023/06/20 01:26:47;;;;;;;27.27;24.45;;;20.10;99.90;;;;;;2091980;28;20222;-73
2023/06/20 01:28:03;;;;;;;27.70;24.70;;;20.10;99.90;;;;;;2090920;28;20055;-73
2023/06/20 01:29:20;;;;;;;26.85;24.15;;;20.10;99.90;;;;;;2096650;28;20132;-73
2023/06/20 01:30:26;;;;;;;26.67;24.02;;;20.10;99.90;;;;;;2097605;28;20080;-73
2023/06/20 01:31:36;;;;;;;26.85;24.13;;;20.00;99.90;;;;;;2098175;28;20051;-74
2023/06/20 01:32:43;;;;;;;27.67;24.73;;;20.10;99.90;;;;;;2100443;28;20036;-73
2023/06/20 01:34:07;;;;;;;27.13;24.35;;;20.00;99.90;;;;;;2097181;28;20032;-73
2023/06/20 01:35:12;;;;;;;26.83;24.08;;;20.00;99.90;;;;;;2094122;28;20035;-74
2023/06/20 01:36:17;;;;;;;27.50;24.67;;;20.00;99.90;;;;;;2081497;28;20067;-74
2023/06/20 01:37:21;;;;;;;28.27;24.65;;;20.00;99.90;;;;;;2078512;28;20037;-74
2023/06/20 01:38:24;;;;;;;27.10;24.40;;;20.00;99.90;;;;;;2089768;28;20107;-73
2023/06/20 01:39:34;;;;;;;27.23;24.33;;;20.00;99.90;;;;;;2102148;28;20054;-73
2023/06/20 01:40:37;;;;;;;26.35;23.63;;;20.00;99.90;;;;;;2090412;28;20415;-74
2023/06/20 01:41:42;;;;;;;26.25;23.48;;;20.00;99.90;;;;;;2096586;28;20036;-74
2023/06/20 01:42:44;;;;;;;26.55;23.77;;;19.90;99.90;;;;;;2089056;28;20017;-74
2023/06/20 01:43:47;;;;;;;28.25;25.35;;;19.90;99.90;;;;;;2091013;28;20035;-73
2023/06/20 01:44:51;;;;;;;29.73;24.80;;;19.90;99.90;;;;;;2092152;28;20139;-73
2023/06/20 01:45:53;;;;;;;25.83;23.17;;;19.90;99.90;;;;;;2102683;28;20031;-74
2023/06/20 01:46:56;;;;;;;26.30;23.70;;;19.90;99.90;;;;;;2098849;28;20028;-74
2023/06/20 01:47:59;;;;;;;26.95;24.13;;;19.90;99.90;;;;;;2091090;28;20561;-74
2023/06/20 01:49:01;;;;;;;26.63;23.83;;;19.90;99.90;;;;;;2091613;28;20483;-73
2023/06/20 01:50:05;;;;;;;26.48;23.80;;;19.90;99.90;;;;;;2100770;28;20068;-74
2023/06/20 01:51:06;;;;;;;26.63;24.00;;;19.90;99.90;;;;;;2100469;28;20022;-74
2023/06/20 01:52:10;;;;;;;26.80;24.20;;;19.80;99.90;;;;;;2096855;28;20529;-74
2023/06/20 01:53:12;;;;;;;26.85;23.95;;;19.90;99.90;;;;;;2092964;28;20426;-74
2023/06/20 01:54:14;;;;;;;27.80;24.88;;;19.80;99.90;;;;;;2099243;28;20617;-74
2023/06/20 01:55:21;;;;;;;28.65;25.55;;;19.80;99.90;;;;;;2099412;28;20082;-74
2023/06/20 01:56:26;;;;;;;27.42;24.63;;;19.80;99.90;;;;;;2097100;28;20093;-73
2023/06/20 01:57:28;;;;;;;26.30;23.63;;;19.80;99.90;;;;;;2088360;28;20527;-75
2023/06/20 01:58:30;;;;;;;27.17;24.38;;;19.80;99.90;;;;;;2088397;28;20025;-74
2023/06/20 01:59:31;;;;;;;26.33;23.52;;;19.70;99.90;;;;;;2091421;28;20459;-74
2023/06/20 02:00:33;;;;;;;26.40;23.80;;;19.70;99.90;;;;;;2093779;28;20082;-73
2023/06/20 02:01:34;;;;;;;27.45;24.75;;;19.70;99.90;;;;;;2101568;28;20545;-74
2023/06/20 02:02:36;;;;;;;26.98;24.17;;;19.70;99.90;;;;;;2101979;28;20027;-74
2023/06/20 02:03:41;;;;;;;27.88;24.98;;;19.70;99.90;;;;;;2092602;28;20057;-73
2023/06/20 02:04:42;;;;;;;26.63;23.83;;;19.70;99.90;;;;;;2095864;28;20487;-73
2023/06/20 02:05:45;;;;;;;26.83;24.08;;;19.70;99.90;;;;;;2095354;28;20028;-73
2023/06/20 02:06:46;;;;;;;27.50;24.73;;;19.70;99.90;;;;;;2095395;28;20024;-75
2023/06/20 02:07:49;;;;;;;26.90;24.30;;;19.60;99.90;;;;;;2101801;28;20026;-73
2023/06/20 02:08:51;;;;;;;26.48;23.67;;;19.70;99.90;;;;;;2097557;28;20016;-73
2023/06/20 02:09:54;;;;;;;26.70;24.10;;;19.70;99.90;;;;;;2099067;28;20052;-73
2023/06/20 02:10:56;;;;;;;27.13;24.13;;;19.60;99.90;;;;;;2095674;28;20494;-74
2023/06/20 02:11:58;;;;;;;26.67;23.98;;;19.60;99.90;;;;;;2094857;28;20075;-74
2023/06/20 02:12:59;;;;;;;27.42;24.52;;;19.60;99.90;;;;;;2093381;28;20089;-74
2023/06/20 02:14:02;;;;;;;28.65;25.58;;;19.60;99.90;;;;;;2095608;28;20523;-75
2023/06/20 02:15:04;;;;;;;27.50;24.65;;;19.60;99.90;;;;;;2083003;28;20021;-74
2023/06/20 02:16:08;;;;;;;27.50;24.70;;;19.60;99.90;;;;;;2084225;28;20032;-74
2023/06/20 02:17:14;;;;;;;27.38;24.65;;;19.50;99.90;;;;;;2082793;28;20052;-73
2023/06/20 02:18:14;;;;;;;26.70;23.90;;;19.60;99.90;;;;;;2087665;28;20351;-73
2023/06/20 02:19:15;;;;;;;27.10;24.20;;;19.50;99.90;;;;;;2097451;28;20021;-73
2023/06/20 02:20:16;;;;;;;26.83;24.10;;;19.50;99.90;;;;;;2089391;28;20040;-73
2023/06/20 02:21:20;;;;;;;27.23;24.35;;;19.50;99.90;;;;;;2085688;28;20052;-73
2023/06/20 02:22:24;;;;;;;26.55;23.95;;;19.50;99.90;;;;;;2095799;28;20664;-73
2023/06/20 02:23:29;;;;;;;26.58;23.90;;;19.50;99.90;;;;;;2093589;28;20024;-72
2023/06/20 02:24:32;;;;;;;26.58;23.92;;;19.50;99.90;;;;;;2095372;28;20040;-75
2023/06/20 02:25:35;;;;;;;27.73;24.83;;;19.50;99.90;;;;;;2100880;28;20054;-74
2023/06/20 02:26:41;;;;;;;26.98;24.17;;;19.50;99.90;;;;;;2103633;28;20047;-74
2023/06/20 02:27:42;;;;;;;27.10;24.30;;;19.40;99.90;;;;;;2093631;28;20047;-74
2023/06/20 02:28:47;;;;;;;26.95;24.13;;;19.40;99.90;;;;;;2093671;28;20596;-73
2023/06/20 02:29:50;;;;;;;27.45;24.63;;;19.40;99.90;;;;;;2092294;28;20036;-74
2023/06/20 02:30:53;;;;;;;26.40;23.70;;;19.40;99.90;;;;;;2095309;28;20546;-73
2023/06/20 02:31:59;;;;;;;27.35;24.40;;;19.40;99.90;;;;;;2098649;28;20028;-74
2023/06/20 02:33:01;;;;;;;26.40;23.63;;;19.40;99.90;;;;;;2098543;28;20093;-75
2023/06/20 02:34:06;;;;;;;26.73;24.00;;;19.30;99.90;;;;;;2098640;28;20020;-74
2023/06/20 02:35:08;;;;;;;25.85;23.20;;;19.30;99.90;;;;;;2077601;28;20041;-74
2023/06/20 02:36:09;;;;;;;25.30;22.75;;;19.40;99.90;;;;;;2099349;28;20031;-74
2023/06/20 02:37:11;;;;;;;24.75;22.08;;;19.40;99.90;;;;;;2093634;28;20565;-74
2023/06/20 02:38:12;;;;;;;25.55;22.10;;;19.40;99.90;;;;;;2085326;28;20033;-74
2023/06/20 02:39:13;;;;;;;24.02;21.63;;;19.40;99.90;;;;;;2086349;28;20040;-74
2023/06/20 02:40:14;;;;;;;25.15;22.42;;;19.40;99.90;;;;;;2101408;28;20031;-74
2023/06/20 02:41:14;;;;;;;24.52;22.02;;;19.40;99.90;;;;;;2093939;28;20028;-74
2023/06/20 02:42:16;;;;;;;27.73;22.33;;;19.40;99.90;;;;;;2098210;28;20065;-74
2023/06/20 02:43:17;;;;;;;24.23;21.73;;;19.40;99.90;;;;;;2095209;28;20094;-74
2023/06/20 02:44:17;;;;;;;24.83;22.23;;;19.40;99.90;;;;;;2095058;28;20153;-76
2023/06/20 02:45:19;;;;;;;23.80;21.38;;;19.40;99.90;;;;;;2085124;28;20033;-71
2023/06/20 02:46:44;;;;;;;23.67;21.17;;;19.50;99.90;;;;;;2088231;28;20121;-77
2023/06/20 02:48:39;;;;;;;24.20;21.70;;;19.40;99.90;;;;;;2092357;28;20037;-79
2023/06/20 02:49:45;;;;;;;24.83;22.25;;;19.40;99.90;;;;;;2091679;28;20128;-77
2023/06/20 02:50:59;;;;;;;25.27;22.70;;;19.40;99.90;;;;;;2082956;28;20107;-78
2023/06/20 02:52:17;;;;;;;26.45;22.67;;;19.40;99.90;;;;;;2089188;28;20031;-77
2023/06/20 02:53:32;;;;;;;25.73;23.02;;;19.40;99.90;;;;;;2091039;28;20035;-78
2023/06/20 02:54:48;;;;;;;24.90;22.02;;;19.40;99.90;;;;;;2094731;28;20040;-77
2023/06/20 02:56:01;;;;;;;26.30;23.20;;;19.50;99.90;;;;;;2086092;28;20033;-78
2023/06/20 02:57:05;;;;;;;26.35;23.65;;;19.40;99.90;;;;;;2089920;28;20033;-78
2023/06/20 02:58:12;;;;;;;25.65;23.02;;;19.40;99.90;;;;;;2090036;28;20031;-78
2023/06/20 02:59:14;;;;;;;25.92;23.33;;;19.40;99.90;;;;;;2088446;28;20021;-79
2023/06/20 03:00:16;;;;;;;24.88;22.45;;;19.40;99.90;;;;;;2089192;28;20674;-79
2023/06/20 03:01:25;;;;;;;27.98;23.48;;;19.40;99.90;;;;;;2091651;28;20025;-79
2023/06/20 03:02:30;;;;;;;26.55;23.48;;;19.40;99.90;;;;;;2097264;28;20066;-78
2023/06/20 03:03:43;;;;;;;28.98;24.67;;;19.40;99.90;;;;;;2088579;28;20033;-78
2023/06/20 03:04:47;;;;;;;27.75;24.38;;;19.40;99.90;;;;;;2090568;28;20024;-79
2023/06/20 03:05:50;;;;;;;26.33;23.55;;;19.30;99.90;;;;;;2095473;28;20515;-78
2023/06/20 03:06:52;;;;;;;26.27;23.50;;;19.40;99.90;;;;;;2092716;28;20021;-78
2023/06/20 03:07:55;;;;;;;24.23;21.73;;;19.40;99.90;;;;;;2099199;28;20110;-79
2023/06/20 03:08:58;;;;;;;25.48;22.77;;;19.40;99.90;;;;;;2091874;28;20465;-78
2023/06/20 03:10:00;;;;;;;25.02;22.33;;;19.40;99.90;;;;;;2093162;28;20431;-78
2023/06/20 03:11:01;;;;;;;25.83;23.13;;;19.40;99.90;;;;;;2080450;28;20033;-78
2023/06/20 03:12:02;;;;;;;25.15;22.45;;;19.40;99.90;;;;;;2093581;28;20040;-79
2023/06/20 03:13:05;;;;;;;24.80;22.33;;;19.40;99.90;;;;;;2098627;28;20431;-79
2023/06/20 03:14:14;;;;;;;25.23;22.63;;;19.40;99.90;;;;;;2103084;28;20028;-79
2023/06/20 03:15:14;;;;;;;25.42;22.85;;;19.40;99.90;;;;;;2098762;28;20375;-78
2023/06/20 03:16:15;;;;;;;25.23;22.58;;;19.40;99.90;;;;;;2089948;28;20519;-79
2023/06/20 03:17:16;;;;;;;25.08;22.58;;;19.40;99.90;;;;;;2098211;28;20090;-78
2023/06/20 03:18:18;;;;;;;25.05;22.40;;;19.40;99.90;;;;;;2100694;28;20031;-78
2023/06/20 03:19:18;;;;;;;24.55;21.95;;;19.40;99.90;;;;;;2092904;28;20029;-78
2023/06/20 03:20:20;;;;;;;24.35;21.95;;;19.40;99.90;;;;;;2091628;28;20021;-79
2023/06/20 03:21:21;;;;;;;23.88;21.48;;;19.40;99.90;;;;;;2095993;28;20028;-78
2023/06/20 03:22:22;;;;;;;24.30;21.88;;;19.40;99.90;;;;;;2106144;28;20103;-78
2023/06/20 03:23:23;;;;;;;24.80;22.10;;;19.40;99.90;;;;;;2098343;28;20023;-79
2023/06/20 03:24:23;;;;;;;25.02;22.40;;;19.40;99.90;;;;;;2103044;28;20028;-79
2023/06/20 03:25:24;;;;;;;25.45;22.73;;;19.40;99.90;;;;;;2094866;28;20016;-79
2023/06/20 03:26:24;;;;;;;24.48;21.98;;;19.50;99.90;;;;;;2078400;28;20068;-77
2023/06/20 03:27:26;;;;;;;24.48;22.02;;;19.50;99.90;;;;;;2081517;28;20048;-79
2023/06/20 03:28:26;;;;;;;25.33;22.75;;;19.50;99.90;;;;;;2092345;28;20480;-79
2023/06/20 03:29:31;;;;;;;25.48;22.25;;;19.50;99.90;;;;;;2094637;28;20566;-79
2023/06/20 03:30:31;;;;;;;26.05;22.67;;;19.50;99.90;;;;;;2092556;28;20038;-78
2023/06/20 03:31:32;;;;;;;25.13;22.00;;;19.50;99.90;;;;;;2088555;28;20028;-78
2023/06/20 03:32:34;;;;;;;25.35;22.70;;;19.50;99.90;;;;;;2086982;28;20037;-78
2023/06/20 03:33:35;;;;;;;24.88;22.30;;;19.50;99.90;;;;;;2093889;28;20155;-79
2023/06/20 03:34:35;;;;;;;24.80;22.10;;;19.50;99.90;;;;;;2090143;28;20044;-77
2023/06/20 03:35:36;;;;;;;25.33;22.55;;;19.50;99.90;;;;;;2090112;28;20342;-78
2023/06/20 03:36:38;;;;;;;26.13;22.50;;;19.50;99.90;;;;;;2098108;28;20774;-76
2023/06/20 03:37:39;;;;;;;25.10;22.42;;;19.60;99.90;;;;;;2094665;28;20028;-79
2023/06/20 03:38:40;;;;;;;25.20;22.60;;;19.60;99.90;;;;;;2091237;28;20613;-79
2023/06/20 03:39:40;;;;;;;25.33;22.73;;;19.60;99.90;;;;;;2094274;28;20484;-78
2023/06/20 03:40:41;;;;;;;25.05;22.35;;;19.60;99.90;;;;;;2092190;28;20032;-79
2023/06/20 03:41:41;;;;;;;25.23;22.48;;;19.60;99.90;;;;;;2092449;28;20028;-78
2023/06/20 03:42:43;;;;;;;25.48;22.23;;;19.70;99.90;;;;;;2093657;28;20031;-78
2023/06/20 03:43:44;;;;;;;25.30;22.70;;;19.70;99.90;;;;;;2089670;28;20762;-78
2023/06/20 03:44:47;;;;;;;24.88;22.42;;;19.70;99.90;;;;;;2086581;28;20027;-78
2023/06/20 03:45:47;;;;;;;25.00;22.40;;;19.80;99.90;;;;;;2094419;28;20427;-78
2023/06/20 03:46:48;;;;;;;24.75;22.13;;;19.90;99.90;;;;;;2086133;28;20028;-78
2023/06/20 03:47:49;;;;;;;23.75;21.35;;;19.90;99.90;;;;;;2088929;28;20518;-79
2023/06/20 03:48:50;;;;;;;23.35;21.05;;;19.90;99.90;;;;;;2095129;28;20476;-78
2023/06/20 03:49:51;;;;;;;22.77;20.48;;;20.00;99.90;;;;;;2102842;28;20020;-77
2023/06/20 03:50:52;;;;;;;22.38;20.00;;;20.00;99.90;;;;;;2092111;28;20024;-77
2023/06/20 03:51:53;;;;;;;23.35;20.95;;;20.10;99.90;;;;;;2083993;28;20029;-78
2023/06/20 03:52:55;;;;;;;24.00;20.88;;;20.10;99.90;;;;;;2082008;28;20470;-78
2023/06/20 03:53:55;;;;;;;24.27;21.67;;;20.20;99.90;;;;;;2078593;28;20559;-77
2023/06/20 03:54:57;;;;;;;23.88;21.27;;;20.20;99.90;;;;;;2089810;28;20435;-79
2023/06/20 03:55:57;;;;;;;23.58;20.88;;;20.20;99.90;;;;;;2094278;28;20033;-79
2023/06/20 03:56:58;;;;;;;22.27;19.88;;;20.30;99.90;;;;;;2092186;28;20084;-79
2023/06/20 03:57:59;;;;;;;23.23;20.80;;;20.40;99.90;;;;;;2092379;28;20451;-78
2023/06/20 03:59:00;;;;;;;22.98;20.58;;;20.40;99.90;;;;;;2084752;28;20112;-78
2023/06/20 04:00:09;;;;;;;22.70;20.30;;;20.50;99.90;;;;;;2092616;28;20538;-78
2023/06/20 04:01:14;;;;;;;22.13;19.92;;;20.50;99.90;;;;;;2100811;28;20157;-79
2023/06/20 04:02:14;;;;;;;22.65;20.25;;;20.60;99.90;;;;;;2098324;28;20583;-79
2023/06/20 04:03:15;;;;;;;22.67;20.38;;;20.70;99.90;;;;;;2094613;28;20024;-79
2023/06/20 04:04:16;;;;;;;21.83;19.52;;;20.80;99.90;;;;;;2092084;28;20032;-79
2023/06/20 04:05:16;;;;;;;22.05;19.83;;;20.90;99.90;;;;;;2094403;28;20394;-78
2023/06/20 04:06:17;;;;;;;22.33;19.40;;;21.00;99.90;;;;;;2089518;28;20115;-77
2023/06/20 04:07:19;;;;;;;21.40;19.23;;;21.20;99.90;;;;;;2097002;28;20028;-78
2023/06/20 04:08:20;;;;;;;20.38;18.27;;;21.50;99.90;;;;;;2079137;28;20029;-80
2023/06/20 04:09:27;;;;;;;22.55;19.13;;;21.80;99.90;;;;;;2084936;28;20021;-79
2023/06/20 04:10:27;;;;;;;20.70;18.50;;;22.10;99.90;;;;;;2095728;28;20034;-79
2023/06/20 04:11:28;;;;;;;20.77;18.67;;;22.40;99.90;;;;;;2099348;28;20053;-80
2023/06/20 04:12:28;;;;;;;20.55;18.25;;;22.80;99.90;;;;;;2102424;28;20138;-79
2023/06/20 04:13:29;;;;;;;19.77;17.60;;;23.00;99.90;;;;;;2094338;28;20043;-79
2023/06/20 04:14:30;;;;;;;21.70;18.58;;;23.10;99.90;;;;;;2097725;28;20066;-80
2023/06/20 04:15:31;;;;;;;19.17;17.27;;;23.20;99.90;;;;;;2096963;28;20032;-80
2023/06/20 04:16:32;;;;;;;19.13;17.13;;;23.30;99.90;;;;;;2096025;28;20078;-80
2023/06/20 04:17:33;;;;;;;18.67;16.85;;;23.40;99.90;;;;;;2101549;28;20051;-79
2023/06/20 04:18:33;;;;;;;19.23;17.10;;;23.60;99.90;;;;;;2092108;28;20541;-78
2023/06/20 04:19:34;;;;;;;19.48;16.90;;;23.80;99.90;;;;;;2093214;28;20032;-76
2023/06/20 04:20:34;;;;;;;18.80;16.95;;;23.90;99.90;;;;;;2094101;28;20064;-77
2023/06/20 04:21:35;;;;;;;19.20;17.23;;;24.00;99.90;;;;;;2089219;28;20036;-79
2023/06/20 04:22:36;;;;;;;20.70;17.08;;;24.10;99.90;;;;;;2097409;28;20040;-77
2023/06/20 04:23:37;;;;;;;24.25;17.27;;;24.10;99.90;;;;;;2102114;28;20026;-76
2023/06/20 04:24:41;;;;;;;19.02;17.02;;;24.10;99.90;;;;;;2099801;28;20021;-77
2023/06/20 04:25:41;;;;;;;19.58;17.25;;;23.90;99.90;;;;;;2091079;28;20426;-79
2023/06/20 04:26:42;;;;;;;19.33;17.27;;;23.60;99.90;;;;;;2091915;28;20021;-82
2023/06/20 04:27:43;;;;;;;19.85;17.75;;;23.40;99.90;;;;;;2099730;28;20444;-82
2023/06/20 04:28:44;;;;;;;20.92;17.42;;;23.30;99.90;;;;;;2092451;28;20462;-83
2023/06/20 04:29:45;;;;;;;20.67;18.00;;;23.10;99.90;;;;;;2087164;28;20407;-80
2023/06/20 04:30:49;;;;;;;19.65;17.60;;;22.90;99.90;;;;;;2096900;28;20584;-81
2023/06/20 04:31:52;;;;;;;19.50;17.40;;;22.80;99.90;;;;;;2094426;28;20614;-82
2023/06/20 04:32:53;;;;;;;19.33;17.38;;;22.60;99.90;;;;;;2089325;28;20036;-79
2023/06/20 04:33:56;;;;;;;24.75;18.33;;;22.60;99.90;;;;;;2081149;28;20030;-80
2023/06/20 04:34:58;;;;;;;20.58;17.63;;;22.50;99.90;;;;;;2089806;28;20184;-80
2023/06/20 04:35:59;;;;;;;19.95;17.85;;;22.40;99.90;;;;;;2102149;28;20047;-80
2023/06/20 04:37:04;;;;;;;19.30;17.27;;;22.30;99.90;;;;;;2101377;28;20123;-77
2023/06/20 04:38:05;;;;;;;19.10;17.27;;;22.40;99.90;;;;;;2091547;28;20032;-75
2023/06/20 04:39:06;;;;;;;19.88;17.77;;;22.40;99.90;;;;;;2083333;28;20032;-77
2023/06/20 04:40:11;;;;;;;20.30;17.83;;;22.40;99.90;;;;;;2083980;28;20025;-76
2023/06/20 04:41:11;;;;;;;19.52;17.55;;;22.40;99.90;;;;;;2085982;28;20021;-77
2023/06/20 04:42:12;;;;;;;18.88;16.95;;;22.40;99.90;;;;;;2085827;28;20021;-78
2023/06/20 04:43:13;;;;;;;20.67;18.13;;;22.50;99.90;;;;;;2100977;28;20255;-77
2023/06/20 04:44:13;;;;;;;19.30;17.50;;;22.50;99.90;;;;;;2089360;28;20032;-77
2023/06/20 04:45:14;;;;;;;19.10;17.20;;;22.60;99.90;;;;;;2089359;28;20484;-76
2023/06/20 04:46:15;;;;;;;20.67;17.48;;;22.70;99.90;;;;;;2092927;28;20021;-76
2023/06/20 04:47:16;;;;;;;19.20;17.20;;;22.70;99.90;;;;;;2102665;28;20289;-77
2023/06/20 04:48:16;;;;;;;18.88;16.67;;;22.90;99.90;;;;;;2095427;28;20099;-76
2023/06/20 04:49:17;;;;;;;20.67;18.58;;;23.00;99.90;;;;;;2092986;28;20581;-78
2023/06/20 04:50:18;;;;;;;18.98;16.75;;;23.10;99.90;;;;;;2090803;28;20020;-77
2023/06/20 04:51:18;;;;;;;18.80;16.90;;;23.30;99.90;;;;;;2092375;28;20114;-78
2023/06/20 04:52:19;;;;;;;26.08;23.30;;;23.50;99.90;;;;;;2092741;28;20107;-77
2023/06/20 04:53:19;;;;;;;31.42;27.45;;;23.60;99.90;;;;;;2088950;28;20024;-76
2023/06/20 04:54:21;;;;;;;22.15;19.88;;;23.70;99.90;;;;;;2089413;28;20527;-75
2023/06/20 04:55:21;;;;;;;20.30;18.20;;;23.60;99.90;;;;;;2097615;28;20052;-76
2023/06/20 04:56:22;;;;;;;19.85;17.85;;;23.60;99.90;;;;;;2103499;28;20083;-76
2023/06/20 04:57:23;;;;;;;18.88;16.98;;;23.50;99.90;;;;;;2090725;28;20130;-76
2023/06/20 04:58:28;;;;;;;18.25;16.50;;;23.40;99.90;;;;;;2094478;28;20048;-76
2023/06/20 04:59:28;;;;;;;19.48;17.05;;;23.40;99.90;;;;;;2101374;28;20043;-76
2023/06/20 05:00:29;;;;;;;18.77;16.77;;;23.30;99.90;;;;;;2098265;28;20036;-76
2023/06/20 05:01:32;;;;;;;21.38;17.73;;;23.30;99.90;;;;;;2102365;28;20031;-74
2023/06/20 05:02:33;;;;;;;20.38;17.33;;;23.20;99.90;;;;;;2099984;28;20344;-75
2023/06/20 05:03:33;;;;;;;19.77;16.85;;;23.10;99.90;;;;;;2100596;28;20024;-75
2023/06/20 05:04:36;;;;;;;19.60;17.52;;;23.20;99.90;;;;;;2085795;28;20521;-76
2023/06/20 05:05:36;;;;;;;19.23;17.20;;;23.30;99.90;;;;;;2089471;28;20033;-73
2023/06/20 05:06:38;;;;;;;19.17;17.20;;;23.60;99.90;;;;;;2097259;28;20119;-74
2023/06/20 05:07:42;;;;;;;21.48;16.60;;;23.90;99.90;;;;;;2086312;28;20037;-74
2023/06/20 05:08:46;;;;;;;18.13;16.33;;;24.40;99.90;;;;;;2079243;28;20049;-75
2023/06/20 05:09:46;;;;;;;16.85;15.05;;;24.80;99.90;;;;;;2091168;28;20072;-76
2023/06/20 05:10:47;;;;;;;19.05;15.90;;;25.30;99.90;;;;;;2100667;28;20126;-76
2023/06/20 05:11:48;;;;;;;17.35;15.52;;;25.80;99.90;;;;;;2099213;28;20043;-75
2023/06/20 05:12:49;;;;;;;16.88;15.13;;;26.00;99.90;;;;;;2100199;28;20051;-75
2023/06/20 05:13:49;;;;;;;16.80;15.00;;;26.10;99.90;;;;;;2100741;28;20394;-75
2023/06/20 05:14:50;;;;;;;18.73;15.50;;;26.20;99.90;;;;;;2097197;28;20028;-76
2023/06/20 05:15:50;;;;;;;16.95;15.02;;;26.20;99.90;;;;;;2097849;28;20036;-76
2023/06/20 05:16:51;;;;;;;17.13;15.32;;;26.00;99.90;;;;;;2097821;28;20477;-75
2023/06/20 05:17:52;;;;;;;18.20;16.25;;;25.80;99.90;;;;;;2102510;28;20139;-75
2023/06/20 05:18:53;;;;;;;17.17;15.32;;;25.60;99.90;;;;;;2101152;28;20128;-75
2023/06/20 05:19:53;;;;;;;16.73;15.13;;;25.40;99.90;;;;;;2100740;28;20270;-75
2023/06/20 05:20:55;;;;;;;17.50;15.23;;;25.30;99.90;;;;;;2103068;28;20555;-76
2023/06/20 05:21:55;;;;;;;17.80;15.50;;;25.10;99.90;;;;;;2100778;28;20386;-75